sensor_id;sensor_type;location;lat;lon;timestamp;P1;durP1;ratioP1;P2;durP2;ratioP2
58565;SDS011;47788;46.172;-1.158;2022-09-28T00:00:37;37.97;;;5.63;;
58565;SDS011;47788;46.172;-1.158;2022-09-28T00:03:07;29.70;;;5.95;;
58565;SDS011;47788;46.172;-1.158;2022-09-28T00:05:33;38.75;;;6.10;;
58565;SDS011;47788;46.172;-1.158;2022-09-28T00:07:59;31.98;;;5.90;;
58565;SDS011;47788;46.172;-1.158;2022-09-28T00:10:25;29.40;;;5.93;;
58565;SDS011;47788;46.172;-1.158;2022-09-28T00:12:51;27.00;;;5.07;;
58565;SDS011;47788;46.172;-1.158;2022-09-28T00:15:19;32.45;;;5.28;;
58565;SDS011;47788;46.172;-1.158;2022-09-28T00:17:46;41.75;;;5.60;;
58565;SDS011;47788;46.172;-1.158;2022-09-28T00:20:12;28.60;;;5.65;;
58565;SDS011;47788;46.172;-1.158;2022-09-28T00:22:38;38.10;;;6.97;;
58565;SDS011;47788;46.172;-1.158;2022-09-28T00:25:04;34.78;;;5.72;;
58565;SDS011;47788;46.172;-1.158;2022-09-28T00:27:31;29.08;;;5.60;;
58565;SDS011;47788;46.172;-1.158;2022-09-28T00:29:56;29.98;;;5.55;;
58565;SDS011;47788;46.172;-1.158;2022-09-28T00:32:22;29.85;;;5.45;;
58565;SDS011;47788;46.172;-1.158;2022-09-28T00:34:48;33.00;;;5.32;;
58565;SDS011;47788;46.172;-1.158;2022-09-28T00:37:15;35.03;;;5.90;;
58565;SDS011;47788;46.172;-1.158;2022-09-28T00:39:42;27.60;;;5.38;;
58565;SDS011;47788;46.172;-1.158;2022-09-28T00:42:19;31.23;;;5.85;;
58565;SDS011;47788;46.172;-1.158;2022-09-28T00:44:53;35.03;;;6.45;;
58565;SDS011;47788;46.172;-1.158;2022-09-28T00:50:19;35.83;;;5.90;;
58565;SDS011;47788;46.172;-1.158;2022-09-28T00:52:58;34.45;;;6.15;;
58565;SDS011;47788;46.172;-1.158;2022-09-28T00:55:28;34.35;;;5.78;;
58565;SDS011;47788;46.172;-1.158;2022-09-28T00:58:04;38.90;;;6.57;;
58565;SDS011;47788;46.172;-1.158;2022-09-28T01:00:33;39.78;;;6.35;;
58565;SDS011;47788;46.172;-1.158;2022-09-28T01:02:59;38.53;;;5.93;;
58565;SDS011;47788;46.172;-1.158;2022-09-28T01:05:25;29.40;;;5.18;;
58565;SDS011;47788;46.172;-1.158;2022-09-28T01:07:51;36.95;;;5.68;;
58565;SDS011;47788;46.172;-1.158;2022-09-28T01:10:19;22.00;;;4.30;;
58565;SDS011;47788;46.172;-1.158;2022-09-28T01:12:45;37.20;;;5.78;;
58565;SDS011;47788;46.172;-1.158;2022-09-28T01:15:11;15.93;;;2.40;;
58565;SDS011;47788;46.172;-1.158;2022-09-28T01:27:58;25.17;;;4.03;;
58565;SDS011;47788;46.172;-1.158;2022-09-28T01:30:32;22.33;;;3.83;;
58565;SDS011;47788;46.172;-1.158;2022-09-28T01:33:08;20.75;;;4.05;;
58565;SDS011;47788;46.172;-1.158;2022-09-28T01:35:51;23.77;;;3.40;;
58565;SDS011;47788;46.172;-1.158;2022-09-28T01:38:42;22.83;;;3.58;;
58565;SDS011;47788;46.172;-1.158;2022-09-28T01:41:14;17.50;;;3.10;;
58565;SDS011;47788;46.172;-1.158;2022-09-28T01:43:42;32.47;;;3.67;;
58565;SDS011;47788;46.172;-1.158;2022-09-28T01:46:13;24.83;;;4.25;;
58565;SDS011;47788;46.172;-1.158;2022-09-28T01:48:45;22.92;;;3.42;;
58565;SDS011;47788;46.172;-1.158;2022-09-28T01:51:31;26.83;;;3.92;;
58565;SDS011;47788;46.172;-1.158;2022-09-28T01:54:21;17.00;;;2.88;;
58565;SDS011;47788;46.172;-1.158;2022-09-28T01:56:57;22.55;;;2.95;;
58565;SDS011;47788;46.172;-1.158;2022-09-28T01:59:32;18.40;;;3.92;;
58565;SDS011;47788;46.172;-1.158;2022-09-28T02:02:02;22.45;;;3.28;;
58565;SDS011;47788;46.172;-1.158;2022-09-28T02:04:34;27.15;;;3.83;;
58565;SDS011;47788;46.172;-1.158;2022-09-28T02:07:10;33.83;;;5.38;;
58565;SDS011;47788;46.172;-1.158;2022-09-28T02:09:50;22.30;;;3.22;;
58565;SDS011;47788;46.172;-1.158;2022-09-28T02:12:35;24.40;;;3.22;;
58565;SDS011;47788;46.172;-1.158;2022-09-28T02:15:13;18.10;;;2.67;;
58565;SDS011;47788;46.172;-1.158;2022-09-28T02:17:47;18.73;;;2.55;;
58565;SDS011;47788;46.172;-1.158;2022-09-28T02:20:14;20.52;;;2.88;;
58565;SDS011;47788;46.172;-1.158;2022-09-28T02:22:48;24.75;;;3.17;;
58565;SDS011;47788;46.172;-1.158;2022-09-28T02:25:31;25.85;;;3.00;;
58565;SDS011;47788;46.172;-1.158;2022-09-28T02:28:04;21.58;;;3.28;;
58565;SDS011;47788;46.172;-1.158;2022-09-28T02:30:32;21.95;;;2.78;;
58565;SDS011;47788;46.172;-1.158;2022-09-28T02:33:23;26.60;;;3.53;;
58565;SDS011;47788;46.172;-1.158;2022-09-28T02:35:53;18.23;;;2.88;;
58565;SDS011;47788;46.172;-1.158;2022-09-28T02:38:19;29.05;;;3.28;;
58565;SDS011;47788;46.172;-1.158;2022-09-28T02:40:48;23.27;;;3.97;;
58565;SDS011;47788;46.172;-1.158;2022-09-28T02:48:56;33.67;;;3.83;;
58565;SDS011;47788;46.172;-1.158;2022-09-28T02:51:46;20.95;;;3.25;;
58565;SDS011;47788;46.172;-1.158;2022-09-28T02:54:39;26.38;;;3.83;;
58565;SDS011;47788;46.172;-1.158;2022-09-28T02:59:48;29.52;;;3.20;;
58565;SDS011;47788;46.172;-1.158;2022-09-28T03:02:35;25.48;;;3.38;;
58565;SDS011;47788;46.172;-1.158;2022-09-28T03:05:09;31.25;;;3.88;;
58565;SDS011;47788;46.172;-1.158;2022-09-28T03:07:47;25.20;;;3.10;;
58565;SDS011;47788;46.172;-1.158;2022-09-28T03:13:07;27.35;;;3.42;;
58565;SDS011;47788;46.172;-1.158;2022-09-28T03:15:34;28.17;;;4.43;;
58565;SDS011;47788;46.172;-1.158;2022-09-28T03:18:00;29.05;;;4.25;;
58565;SDS011;47788;46.172;-1.158;2022-09-28T03:20:27;27.08;;;4.10;;
58565;SDS011;47788;46.172;-1.158;2022-09-28T03:22:55;30.98;;;5.32;;
58565;SDS011;47788;46.172;-1.158;2022-09-28T03:25:20;20.80;;;3.75;;
58565;SDS011;47788;46.172;-1.158;2022-09-28T03:27:46;24.90;;;4.20;;
58565;SDS011;47788;46.172;-1.158;2022-09-28T03:30:12;28.75;;;3.92;;
58565;SDS011;47788;46.172;-1.158;2022-09-28T03:32:38;27.83;;;4.28;;
58565;SDS011;47788;46.172;-1.158;2022-09-28T03:35:04;21.60;;;3.60;;
58565;SDS011;47788;46.172;-1.158;2022-09-28T03:37:31;28.13;;;3.80;;
58565;SDS011;47788;46.172;-1.158;2022-09-28T03:39:57;20.50;;;3.53;;
58565;SDS011;47788;46.172;-1.158;2022-09-28T03:42:23;24.75;;;3.88;;
58565;SDS011;47788;46.172;-1.158;2022-09-28T03:44:48;23.08;;;3.63;;
58565;SDS011;47788;46.172;-1.158;2022-09-28T03:47:14;29.92;;;4.25;;
58565;SDS011;47788;46.172;-1.158;2022-09-28T03:49:41;27.48;;;3.72;;
58565;SDS011;47788;46.172;-1.158;2022-09-28T03:52:08;25.10;;;3.55;;
58565;SDS011;47788;46.172;-1.158;2022-09-28T03:54:33;27.40;;;4.03;;
58565;SDS011;47788;46.172;-1.158;2022-09-28T03:56:59;32.63;;;4.80;;
58565;SDS011;47788;46.172;-1.158;2022-09-28T03:59:25;25.23;;;3.25;;
58565;SDS011;47788;46.172;-1.158;2022-09-28T04:01:50;30.98;;;4.72;;
58565;SDS011;47788;46.172;-1.158;2022-09-28T04:04:16;31.85;;;4.75;;
58565;SDS011;47788;46.172;-1.158;2022-09-28T04:06:42;26.42;;;4.25;;
58565;SDS011;47788;46.172;-1.158;2022-09-28T04:09:08;25.52;;;4.03;;
58565;SDS011;47788;46.172;-1.158;2022-09-28T04:11:34;27.08;;;3.75;;
58565;SDS011;47788;46.172;-1.158;2022-09-28T04:13:59;24.90;;;4.13;;
58565;SDS011;47788;46.172;-1.158;2022-09-28T04:16:25;24.60;;;3.95;;
58565;SDS011;47788;46.172;-1.158;2022-09-28T04:18:51;17.52;;;3.80;;
58565;SDS011;47788;46.172;-1.158;2022-09-28T04:21:18;26.95;;;4.00;;
58565;SDS011;47788;46.172;-1.158;2022-09-28T04:23:44;28.73;;;4.18;;
58565;SDS011;47788;46.172;-1.158;2022-09-28T04:26:44;25.92;;;4.53;;
58565;SDS011;47788;46.172;-1.158;2022-09-28T04:29:03;30.73;;;5.70;;
58565;SDS011;47788;46.172;-1.158;2022-09-28T04:31:41;32.20;;;4.30;;
58565;SDS011;47788;46.172;-1.158;2022-09-28T04:34:13;25.80;;;3.90;;
58565;SDS011;47788;46.172;-1.158;2022-09-28T04:36:41;29.30;;;3.53;;
58565;SDS011;47788;46.172;-1.158;2022-09-28T04:39:08;24.02;;;3.35;;
58565;SDS011;47788;46.172;-1.158;2022-09-28T04:41:38;27.42;;;4.25;;
58565;SDS011;47788;46.172;-1.158;2022-09-28T04:44:04;26.10;;;4.88;;
58565;SDS011;47788;46.172;-1.158;2022-09-28T04:46:30;21.83;;;3.47;;
58565;SDS011;47788;46.172;-1.158;2022-09-28T04:48:56;25.40;;;3.28;;
58565;SDS011;47788;46.172;-1.158;2022-09-28T04:51:21;16.30;;;2.92;;
58565;SDS011;47788;46.172;-1.158;2022-09-28T04:53:47;32.30;;;4.40;;
58565;SDS011;47788;46.172;-1.158;2022-09-28T04:56:13;27.15;;;4.60;;
58565;SDS011;47788;46.172;-1.158;2022-09-28T04:58:40;29.30;;;4.38;;
58565;SDS011;47788;46.172;-1.158;2022-09-28T05:01:16;23.92;;;3.55;;
58565;SDS011;47788;46.172;-1.158;2022-09-28T05:03:42;34.28;;;4.60;;
58565;SDS011;47788;46.172;-1.158;2022-09-28T05:06:09;29.00;;;4.57;;
58565;SDS011;47788;46.172;-1.158;2022-09-28T05:08:38;28.52;;;4.38;;
58565;SDS011;47788;46.172;-1.158;2022-09-28T05:11:05;29.15;;;4.88;;
58565;SDS011;47788;46.172;-1.158;2022-09-28T05:13:33;39.03;;;4.80;;
58565;SDS011;47788;46.172;-1.158;2022-09-28T05:16:05;27.00;;;3.83;;
58565;SDS011;47788;46.172;-1.158;2022-09-28T05:18:32;32.45;;;4.35;;
58565;SDS011;47788;46.172;-1.158;2022-09-28T05:20:57;22.33;;;3.92;;
58565;SDS011;47788;46.172;-1.158;2022-09-28T05:23:23;25.70;;;4.00;;
58565;SDS011;47788;46.172;-1.158;2022-09-28T05:25:49;25.83;;;4.10;;
58565;SDS011;47788;46.172;-1.158;2022-09-28T05:28:17;29.67;;;3.92;;
58565;SDS011;47788;46.172;-1.158;2022-09-28T05:30:48;30.27;;;4.97;;
58565;SDS011;47788;46.172;-1.158;2022-09-28T05:33:13;26.40;;;4.28;;
58565;SDS011;47788;46.172;-1.158;2022-09-28T05:35:39;36.40;;;5.13;;
58565;SDS011;47788;46.172;-1.158;2022-09-28T05:38:05;31.85;;;5.57;;
58565;SDS011;47788;46.172;-1.158;2022-09-28T05:40:30;26.27;;;5.05;;
58565;SDS011;47788;46.172;-1.158;2022-09-28T05:42:59;33.38;;;4.43;;
58565;SDS011;47788;46.172;-1.158;2022-09-28T05:45:26;34.53;;;5.30;;
58565;SDS011;47788;46.172;-1.158;2022-09-28T05:47:53;24.60;;;4.55;;
58565;SDS011;47788;46.172;-1.158;2022-09-28T05:50:18;37.03;;;6.90;;
58565;SDS011;47788;46.172;-1.158;2022-09-28T05:52:44;26.38;;;3.85;;
58565;SDS011;47788;46.172;-1.158;2022-09-28T05:55:10;43.42;;;5.32;;
58565;SDS011;47788;46.172;-1.158;2022-09-28T05:57:36;31.70;;;4.95;;
58565;SDS011;47788;46.172;-1.158;2022-09-28T06:00:05;37.60;;;4.63;;
58565;SDS011;47788;46.172;-1.158;2022-09-28T06:02:34;25.40;;;4.00;;
58565;SDS011;47788;46.172;-1.158;2022-09-28T06:05:00;27.83;;;4.63;;
58565;SDS011;47788;46.172;-1.158;2022-09-28T06:07:25;24.95;;;3.95;;
58565;SDS011;47788;46.172;-1.158;2022-09-28T06:09:51;27.63;;;5.45;;
58565;SDS011;47788;46.172;-1.158;2022-09-28T06:12:17;33.60;;;4.68;;
58565;SDS011;47788;46.172;-1.158;2022-09-28T06:14:43;39.40;;;6.03;;
58565;SDS011;47788;46.172;-1.158;2022-09-28T06:17:09;29.17;;;4.75;;
58565;SDS011;47788;46.172;-1.158;2022-09-28T06:19:35;19.92;;;4.00;;
58565;SDS011;47788;46.172;-1.158;2022-09-28T06:22:00;36.00;;;4.30;;
58565;SDS011;47788;46.172;-1.158;2022-09-28T06:24:26;32.30;;;4.72;;
58565;SDS011;47788;46.172;-1.158;2022-09-28T06:26:51;32.67;;;4.93;;
58565;SDS011;47788;46.172;-1.158;2022-09-28T06:29:17;24.17;;;2.88;;
58565;SDS011;47788;46.172;-1.158;2022-09-28T06:31:43;16.88;;;2.25;;
58565;SDS011;47788;46.172;-1.158;2022-09-28T06:34:10;36.60;;;4.72;;
58565;SDS011;47788;46.172;-1.158;2022-09-28T06:36:36;24.95;;;3.13;;
58565;SDS011;47788;46.172;-1.158;2022-09-28T06:39:02;31.20;;;3.20;;
58565;SDS011;47788;46.172;-1.158;2022-09-28T06:41:28;37.00;;;4.93;;
58565;SDS011;47788;46.172;-1.158;2022-09-28T06:43:54;33.70;;;4.03;;
58565;SDS011;47788;46.172;-1.158;2022-09-28T06:46:20;48.30;;;6.05;;
58565;SDS011;47788;46.172;-1.158;2022-09-28T06:48:46;47.28;;;5.20;;
58565;SDS011;47788;46.172;-1.158;2022-09-28T06:51:12;41.72;;;5.05;;
58565;SDS011;47788;46.172;-1.158;2022-09-28T06:53:37;36.65;;;4.95;;
58565;SDS011;47788;46.172;-1.158;2022-09-28T06:56:03;36.50;;;5.63;;
58565;SDS011;47788;46.172;-1.158;2022-09-28T06:58:30;36.90;;;4.68;;
58565;SDS011;47788;46.172;-1.158;2022-09-28T07:00:56;26.77;;;4.00;;
58565;SDS011;47788;46.172;-1.158;2022-09-28T07:03:25;38.40;;;4.85;;
58565;SDS011;47788;46.172;-1.158;2022-09-28T07:05:51;40.83;;;5.78;;
58565;SDS011;47788;46.172;-1.158;2022-09-28T07:08:19;30.88;;;4.22;;
58565;SDS011;47788;46.172;-1.158;2022-09-28T07:10:48;28.25;;;3.60;;
58565;SDS011;47788;46.172;-1.158;2022-09-28T07:13:20;25.38;;;4.35;;
58565;SDS011;47788;46.172;-1.158;2022-09-28T07:15:47;27.10;;;4.32;;
58565;SDS011;47788;46.172;-1.158;2022-09-28T07:18:17;36.33;;;4.32;;
58565;SDS011;47788;46.172;-1.158;2022-09-28T07:20:43;31.75;;;4.55;;
58565;SDS011;47788;46.172;-1.158;2022-09-28T07:23:08;31.85;;;4.32;;
58565;SDS011;47788;46.172;-1.158;2022-09-28T07:25:34;56.83;;;5.90;;
58565;SDS011;47788;46.172;-1.158;2022-09-28T07:28:04;28.52;;;3.60;;
58565;SDS011;47788;46.172;-1.158;2022-09-28T07:30:31;33.20;;;4.40;;
58565;SDS011;47788;46.172;-1.158;2022-09-28T07:32:59;39.00;;;5.82;;
58565;SDS011;47788;46.172;-1.158;2022-09-28T07:35:25;33.35;;;4.03;;
58565;SDS011;47788;46.172;-1.158;2022-09-28T07:37:58;46.55;;;4.93;;
58565;SDS011;47788;46.172;-1.158;2022-09-28T07:40:26;40.25;;;4.97;;
58565;SDS011;47788;46.172;-1.158;2022-09-28T07:43:10;46.42;;;5.18;;
58565;SDS011;47788;46.172;-1.158;2022-09-28T07:45:37;36.97;;;5.07;;
58565;SDS011;47788;46.172;-1.158;2022-09-28T07:48:03;33.30;;;4.10;;
58565;SDS011;47788;46.172;-1.158;2022-09-28T07:54:04;37.22;;;6.07;;
58565;SDS011;47788;46.172;-1.158;2022-09-28T08:04:06;34.47;;;5.20;;
58565;SDS011;47788;46.172;-1.158;2022-09-28T08:06:32;26.42;;;3.28;;
58565;SDS011;47788;46.172;-1.158;2022-09-28T08:08:58;27.55;;;4.18;;
58565;SDS011;47788;46.172;-1.158;2022-09-28T08:11:25;28.35;;;4.00;;
58565;SDS011;47788;46.172;-1.158;2022-09-28T08:13:51;25.88;;;4.20;;
58565;SDS011;47788;46.172;-1.158;2022-09-28T08:16:20;27.42;;;4.28;;
58565;SDS011;47788;46.172;-1.158;2022-09-28T08:18:49;28.00;;;3.67;;
58565;SDS011;47788;46.172;-1.158;2022-09-28T08:21:15;29.23;;;3.40;;
58565;SDS011;47788;46.172;-1.158;2022-09-28T08:23:59;29.58;;;4.03;;
58565;SDS011;47788;46.172;-1.158;2022-09-28T08:26:24;23.90;;;4.18;;
58565;SDS011;47788;46.172;-1.158;2022-09-28T08:28:50;29.73;;;3.72;;
58565;SDS011;47788;46.172;-1.158;2022-09-28T08:31:16;19.73;;;3.22;;
58565;SDS011;47788;46.172;-1.158;2022-09-28T08:33:41;16.35;;;3.17;;
58565;SDS011;47788;46.172;-1.158;2022-09-28T08:36:08;23.88;;;3.50;;
58565;SDS011;47788;46.172;-1.158;2022-09-28T08:38:34;20.70;;;2.78;;
58565;SDS011;47788;46.172;-1.158;2022-09-28T08:44:15;23.40;;;3.30;;
58565;SDS011;47788;46.172;-1.158;2022-09-28T08:46:42;22.58;;;3.58;;
58565;SDS011;47788;46.172;-1.158;2022-09-28T08:51:59;26.83;;;3.88;;
58565;SDS011;47788;46.172;-1.158;2022-09-28T08:57:13;22.63;;;2.60;;
58565;SDS011;47788;46.172;-1.158;2022-09-28T08:59:45;17.45;;;2.60;;
58565;SDS011;47788;46.172;-1.158;2022-09-28T09:02:22;15.38;;;2.55;;
58565;SDS011;47788;46.172;-1.158;2022-09-28T09:04:53;18.88;;;3.15;;
58565;SDS011;47788;46.172;-1.158;2022-09-28T09:18:31;25.70;;;3.55;;
58565;SDS011;47788;46.172;-1.158;2022-09-28T09:21:03;22.45;;;3.38;;
58565;SDS011;47788;46.172;-1.158;2022-09-28T09:23:43;17.30;;;2.78;;
58565;SDS011;47788;46.172;-1.158;2022-09-28T09:26:28;24.98;;;3.53;;
58565;SDS011;47788;46.172;-1.158;2022-09-28T09:42:35;22.60;;;3.33;;
58565;SDS011;47788;46.172;-1.158;2022-09-28T09:48:07;17.88;;;2.72;;
58565;SDS011;47788;46.172;-1.158;2022-09-28T09:50:48;14.93;;;2.40;;
58565;SDS011;47788;46.172;-1.158;2022-09-28T09:56:00;15.93;;;2.22;;
58565;SDS011;47788;46.172;-1.158;2022-09-28T09:58:47;21.95;;;2.90;;
58565;SDS011;47788;46.172;-1.158;2022-09-28T10:01:18;18.95;;;2.63;;
58565;SDS011;47788;46.172;-1.158;2022-09-28T10:03:56;16.92;;;3.08;;
58565;SDS011;47788;46.172;-1.158;2022-09-28T10:06:29;13.43;;;2.40;;
58565;SDS011;47788;46.172;-1.158;2022-09-28T10:09:02;14.63;;;2.80;;
58565;SDS011;47788;46.172;-1.158;2022-09-28T10:11:43;15.43;;;2.50;;
58565;SDS011;47788;46.172;-1.158;2022-09-28T10:14:15;21.92;;;3.42;;
58565;SDS011;47788;46.172;-1.158;2022-09-28T10:16:45;16.42;;;2.58;;
58565;SDS011;47788;46.172;-1.158;2022-09-28T10:19:12;12.82;;;2.33;;
58565;SDS011;47788;46.172;-1.158;2022-09-28T10:21:40;19.52;;;3.15;;
58565;SDS011;47788;46.172;-1.158;2022-09-28T10:24:10;17.33;;;2.65;;
58565;SDS011;47788;46.172;-1.158;2022-09-28T10:26:47;18.52;;;2.70;;
58565;SDS011;47788;46.172;-1.158;2022-09-28T10:29:20;20.08;;;2.53;;
58565;SDS011;47788;46.172;-1.158;2022-09-28T10:31:49;14.23;;;2.30;;
58565;SDS011;47788;46.172;-1.158;2022-09-28T10:34:17;15.93;;;2.42;;
58565;SDS011;47788;46.172;-1.158;2022-09-28T10:39:24;11.68;;;1.95;;
58565;SDS011;47788;46.172;-1.158;2022-09-28T10:41:57;15.38;;;2.75;;
58565;SDS011;47788;46.172;-1.158;2022-09-28T10:44:27;13.77;;;1.85;;
58565;SDS011;47788;46.172;-1.158;2022-09-28T10:47:04;14.00;;;2.30;;
58565;SDS011;47788;46.172;-1.158;2022-09-28T10:49:41;15.07;;;2.00;;
58565;SDS011;47788;46.172;-1.158;2022-09-28T10:52:31;10.30;;;1.75;;
58565;SDS011;47788;46.172;-1.158;2022-09-28T10:57:51;10.05;;;1.90;;
58565;SDS011;47788;46.172;-1.158;2022-09-28T11:00:31;14.30;;;2.33;;
58565;SDS011;47788;46.172;-1.158;2022-09-28T11:03:04;5.97;;;1.38;;
58565;SDS011;47788;46.172;-1.158;2022-09-28T11:05:41;4.82;;;1.00;;
58565;SDS011;47788;46.172;-1.158;2022-09-28T11:08:14;10.65;;;1.35;;
58565;SDS011;47788;46.172;-1.158;2022-09-28T11:10:46;5.93;;;1.17;;
58565;SDS011;47788;46.172;-1.158;2022-09-28T11:13:12;11.45;;;1.55;;
58565;SDS011;47788;46.172;-1.158;2022-09-28T11:15:39;8.65;;;1.63;;
58565;SDS011;47788;46.172;-1.158;2022-09-28T11:18:18;9.35;;;1.40;;
58565;SDS011;47788;46.172;-1.158;2022-09-28T11:20:51;11.60;;;1.63;;
58565;SDS011;47788;46.172;-1.158;2022-09-28T11:25:42;6.95;;;1.58;;
58565;SDS011;47788;46.172;-1.158;2022-09-28T11:28:22;7.18;;;1.42;;
58565;SDS011;47788;46.172;-1.158;2022-09-28T11:33:21;10.18;;;1.88;;
58565;SDS011;47788;46.172;-1.158;2022-09-28T11:35:55;9.05;;;1.30;;
58565;SDS011;47788;46.172;-1.158;2022-09-28T11:49:43;8.93;;;2.33;;
58565;SDS011;47788;46.172;-1.158;2022-09-28T11:57:45;10.23;;;2.08;;
58565;SDS011;47788;46.172;-1.158;2022-09-28T12:00:18;12.15;;;1.90;;
58565;SDS011;47788;46.172;-1.158;2022-09-28T12:05:27;8.95;;;1.50;;
58565;SDS011;47788;46.172;-1.158;2022-09-28T12:08:02;7.22;;;1.25;;
58565;SDS011;47788;46.172;-1.158;2022-09-28T12:18:05;3.28;;;0.70;;
58565;SDS011;47788;46.172;-1.158;2022-09-28T12:23:59;5.18;;;0.90;;
58565;SDS011;47788;46.172;-1.158;2022-09-28T12:26:55;5.60;;;1.50;;
58565;SDS011;47788;46.172;-1.158;2022-09-28T12:29:26;3.72;;;0.60;;
58565;SDS011;47788;46.172;-1.158;2022-09-28T12:32:06;5.60;;;0.80;;
58565;SDS011;47788;46.172;-1.158;2022-09-28T12:34:41;5.13;;;0.93;;
58565;SDS011;47788;46.172;-1.158;2022-09-28T12:37:17;4.43;;;0.98;;
58565;SDS011;47788;46.172;-1.158;2022-09-28T12:40:10;7.82;;;1.13;;
58565;SDS011;47788;46.172;-1.158;2022-09-28T12:43:12;4.47;;;0.88;;
58565;SDS011;47788;46.172;-1.158;2022-09-28T12:57:36;7.65;;;1.25;;
58565;SDS011;47788;46.172;-1.158;2022-09-28T13:00:22;6.90;;;1.33;;
58565;SDS011;47788;46.172;-1.158;2022-09-28T13:08:56;7.63;;;0.90;;
58565;SDS011;47788;46.172;-1.158;2022-09-28T13:14:33;6.15;;;1.10;;
58565;SDS011;47788;46.172;-1.158;2022-09-28T13:17:13;10.40;;;1.40;;
58565;SDS011;47788;46.172;-1.158;2022-09-28T13:19:55;11.00;;;1.23;;
58565;SDS011;47788;46.172;-1.158;2022-09-28T13:25:15;7.60;;;0.80;;
58565;SDS011;47788;46.172;-1.158;2022-09-28T13:27:52;8.25;;;1.40;;
58565;SDS011;47788;46.172;-1.158;2022-09-28T13:30:22;11.13;;;1.80;;
58565;SDS011;47788;46.172;-1.158;2022-09-28T13:32:49;16.98;;;2.10;;
58565;SDS011;47788;46.172;-1.158;2022-09-28T13:35:18;13.75;;;2.33;;
58565;SDS011;47788;46.172;-1.158;2022-09-28T13:37:44;15.75;;;2.78;;
58565;SDS011;47788;46.172;-1.158;2022-09-28T13:40:11;14.25;;;2.20;;
58565;SDS011;47788;46.172;-1.158;2022-09-28T14:01:36;20.45;;;3.35;;
58565;SDS011;47788;46.172;-1.158;2022-09-28T14:04:18;24.13;;;4.45;;
58565;SDS011;47788;46.172;-1.158;2022-09-28T14:06:49;25.80;;;3.40;;
58565;SDS011;47788;46.172;-1.158;2022-09-28T14:09:24;28.35;;;3.85;;
58565;SDS011;47788;46.172;-1.158;2022-09-28T14:14:58;25.30;;;3.05;;
58565;SDS011;47788;46.172;-1.158;2022-09-28T14:19:55;18.83;;;3.17;;
58565;SDS011;47788;46.172;-1.158;2022-09-28T14:35:57;33.25;;;5.13;;
58565;SDS011;47788;46.172;-1.158;2022-09-28T14:38:45;18.27;;;3.50;;
58565;SDS011;47788;46.172;-1.158;2022-09-28T14:41:35;18.60;;;3.75;;
58565;SDS011;47788;46.172;-1.158;2022-09-28T14:49:45;11.63;;;2.70;;
58565;SDS011;47788;46.172;-1.158;2022-09-28T14:52:00;9.18;;;1.42;;
58565;SDS011;47788;46.172;-1.158;2022-09-28T14:57:16;14.45;;;2.10;;
58565;SDS011;47788;46.172;-1.158;2022-09-28T14:59:48;13.57;;;1.75;;
58565;SDS011;47788;46.172;-1.158;2022-09-28T15:02:16;14.38;;;2.22;;
58565;SDS011;47788;46.172;-1.158;2022-09-28T15:05:01;4.13;;;1.13;;
58565;SDS011;47788;46.172;-1.158;2022-09-28T15:07:42;2.35;;;0.45;;
58565;SDS011;47788;46.172;-1.158;2022-09-28T15:10:21;1.75;;;0.30;;
58565;SDS011;47788;46.172;-1.158;2022-09-28T15:12:56;2.00;;;0.40;;
58565;SDS011;47788;46.172;-1.158;2022-09-28T15:15:44;1.10;;;0.28;;
58565;SDS011;47788;46.172;-1.158;2022-09-28T15:20:46;1.42;;;0.60;;
58565;SDS011;47788;46.172;-1.158;2022-09-28T15:23:23;1.20;;;0.10;;
58565;SDS011;47788;46.172;-1.158;2022-09-28T15:26:00;1.77;;;0.43;;
58565;SDS011;47788;46.172;-1.158;2022-09-28T15:28:26;1.48;;;0.35;;
58565;SDS011;47788;46.172;-1.158;2022-09-28T15:30:59;1.30;;;0.38;;
58565;SDS011;47788;46.172;-1.158;2022-09-28T15:36:16;1.30;;;0.32;;
58565;SDS011;47788;46.172;-1.158;2022-09-28T15:38:53;1.90;;;0.50;;
58565;SDS011;47788;46.172;-1.158;2022-09-28T15:41:19;2.55;;;0.40;;
58565;SDS011;47788;46.172;-1.158;2022-09-28T15:44:02;3.38;;;0.57;;
58565;SDS011;47788;46.172;-1.158;2022-09-28T15:46:31;4.78;;;0.80;;
58565;SDS011;47788;46.172;-1.158;2022-09-28T15:48:58;4.43;;;0.80;;
58565;SDS011;47788;46.172;-1.158;2022-09-28T15:51:27;2.78;;;0.40;;
58565;SDS011;47788;46.172;-1.158;2022-09-28T15:54:08;7.22;;;1.00;;
58565;SDS011;47788;46.172;-1.158;2022-09-28T15:56:52;6.72;;;0.80;;
58565;SDS011;47788;46.172;-1.158;2022-09-28T15:59:24;6.15;;;0.77;;
58565;SDS011;47788;46.172;-1.158;2022-09-28T16:04:43;3.97;;;0.52;;
58565;SDS011;47788;46.172;-1.158;2022-09-28T16:12:18;2.92;;;0.77;;
58565;SDS011;47788;46.172;-1.158;2022-09-28T16:14:46;3.65;;;0.55;;
58565;SDS011;47788;46.172;-1.158;2022-09-28T16:17:18;7.00;;;0.95;;
58565;SDS011;47788;46.172;-1.158;2022-09-28T16:19:57;3.67;;;0.50;;
58565;SDS011;47788;46.172;-1.158;2022-09-28T16:22:27;7.65;;;1.17;;
58565;SDS011;47788;46.172;-1.158;2022-09-28T16:24:56;8.48;;;1.73;;
58565;SDS011;47788;46.172;-1.158;2022-09-28T16:27:38;7.68;;;2.22;;
58565;SDS011;47788;46.172;-1.158;2022-09-28T16:35:26;5.35;;;1.48;;
58565;SDS011;47788;46.172;-1.158;2022-09-28T16:40:20;9.48;;;1.80;;
58565;SDS011;47788;46.172;-1.158;2022-09-28T16:42:46;9.98;;;1.60;;
58565;SDS011;47788;46.172;-1.158;2022-09-28T16:45:17;11.38;;;1.10;;
58565;SDS011;47788;46.172;-1.158;2022-09-28T16:47:45;6.35;;;1.00;;
58565;SDS011;47788;46.172;-1.158;2022-09-28T16:50:13;6.00;;;1.58;;
58565;SDS011;47788;46.172;-1.158;2022-09-28T16:52:39;8.80;;;1.52;;
58565;SDS011;47788;46.172;-1.158;2022-09-28T16:55:24;9.75;;;1.77;;
58565;SDS011;47788;46.172;-1.158;2022-09-28T16:57:49;7.30;;;1.77;;
58565;SDS011;47788;46.172;-1.158;2022-09-28T17:00:17;9.82;;;2.38;;
58565;SDS011;47788;46.172;-1.158;2022-09-28T17:02:50;14.05;;;2.58;;
58565;SDS011;47788;46.172;-1.158;2022-09-28T17:05:17;9.25;;;1.80;;
58565;SDS011;47788;46.172;-1.158;2022-09-28T17:10:49;11.95;;;1.65;;
58565;SDS011;47788;46.172;-1.158;2022-09-28T17:13:21;11.90;;;2.45;;
58565;SDS011;47788;46.172;-1.158;2022-09-28T17:15:52;14.07;;;2.05;;
58565;SDS011;47788;46.172;-1.158;2022-09-28T17:18:21;11.10;;;2.88;;
58565;SDS011;47788;46.172;-1.158;2022-09-28T17:20:47;13.80;;;2.28;;
58565;SDS011;47788;46.172;-1.158;2022-09-28T17:23:15;15.05;;;1.77;;
58565;SDS011;47788;46.172;-1.158;2022-09-28T17:25:42;13.20;;;2.25;;
58565;SDS011;47788;46.172;-1.158;2022-09-28T17:28:41;8.80;;;1.63;;
58565;SDS011;47788;46.172;-1.158;2022-09-28T17:31:01;9.55;;;1.85;;
58565;SDS011;47788;46.172;-1.158;2022-09-28T17:33:27;10.68;;;1.83;;
58565;SDS011;47788;46.172;-1.158;2022-09-28T17:35:57;11.88;;;2.90;;
58565;SDS011;47788;46.172;-1.158;2022-09-28T17:38:25;16.73;;;4.10;;
58565;SDS011;47788;46.172;-1.158;2022-09-28T17:40:51;15.25;;;3.50;;
58565;SDS011;47788;46.172;-1.158;2022-09-28T17:43:16;13.52;;;3.75;;
58565;SDS011;47788;46.172;-1.158;2022-09-28T17:45:43;13.98;;;2.97;;
58565;SDS011;47788;46.172;-1.158;2022-09-28T17:48:14;19.90;;;2.80;;
58565;SDS011;47788;46.172;-1.158;2022-09-28T17:50:43;10.38;;;2.17;;
58565;SDS011;47788;46.172;-1.158;2022-09-28T17:53:11;14.05;;;2.40;;
58565;SDS011;47788;46.172;-1.158;2022-09-28T17:55:37;14.32;;;2.42;;
58565;SDS011;47788;46.172;-1.158;2022-09-28T18:00:44;11.82;;;2.38;;
58565;SDS011;47788;46.172;-1.158;2022-09-28T18:03:15;11.05;;;2.17;;
58565;SDS011;47788;46.172;-1.158;2022-09-28T18:05:43;11.23;;;2.20;;
58565;SDS011;47788;46.172;-1.158;2022-09-28T18:08:11;11.20;;;1.70;;
58565;SDS011;47788;46.172;-1.158;2022-09-28T18:10:39;14.23;;;1.70;;
58565;SDS011;47788;46.172;-1.158;2022-09-28T18:13:05;9.38;;;1.80;;
58565;SDS011;47788;46.172;-1.158;2022-09-28T18:15:31;17.35;;;2.30;;